BIENTÔT MET'MAP
version 2.0 !

Prévue avant fin octobre,
la nouvelle version sera
plus belle, plus complète
et hébergée sur un serveur
3 fois plus puissant...
et toujours gratuite !


Pas compatible ?
Essayez la version Mobile !

SE CONNECTER : | S'inscrire | Disclaimer | Découvrir Orbifly |
Code OACI :

TAF - LGST Sitia - 13 Jul 2020 04:02 UTC - Data Source NOAA   


- Altitude de l'aérodrome : 376 ft
- Code IATA : JSH
- Pas de NOTAMs connus.


LGST - Sitia

PAS DE METAR
TAF TAF LGST
Valide du 13 à 00h jusqu'au 13 à 09h UTC


122300Z 1300/1309 29025KT 9999 FEW020
TEMPO 1300/1309 29025G35KT

Source NOAA


MET'MAP, la Météo Aéronautique d'un coup d'oeil ! - Copyright ORBIFLY Décembre 2007

Développement & Programmation : Alexandra Zaïnal
Co-Développement : Marc-Olivier Méhu
Soutien technique & logistique : Manuel Goepfert
Conception & Financement : Baudouin d'Aumeries